createdAt,value
2022-08-31T00:00:26.186Z,99.90
2022-08-31T00:03:11.296Z,99.90
2022-08-31T00:05:38.953Z,99.90
2022-08-31T00:08:06.358Z,99.90
2022-08-31T00:10:37.091Z,99.90
2022-08-31T00:15:43.630Z,99.90
2022-08-31T00:18:10.590Z,99.90
2022-08-31T00:20:37.990Z,99.90
2022-08-31T00:23:08.225Z,99.90
2022-08-31T00:25:37.135Z,99.90
2022-08-31T00:28:05.290Z,99.90
2022-08-31T00:30:32.643Z,99.90
2022-08-31T00:33:00.271Z,99.90
2022-08-31T00:40:44.544Z,99.90
2022-08-31T00:43:32.969Z,99.90
2022-08-31T00:45:59.853Z,99.90
2022-08-31T00:48:26.980Z,99.90
2022-08-31T00:50:54.714Z,99.90
2022-08-31T00:53:21.825Z,99.90
2022-08-31T00:55:48.611Z,99.90
2022-08-31T01:00:58.346Z,99.90
2022-08-31T01:03:25.315Z,99.90
2022-08-31T01:05:52.620Z,99.90
2022-08-31T01:08:19.930Z,99.90
2022-08-31T01:10:58.558Z,99.90
2022-08-31T01:13:26.416Z,99.90
2022-08-31T01:15:58.964Z,99.90
2022-08-31T01:24:01.600Z,99.90
2022-08-31T01:26:30.506Z,99.90
2022-08-31T01:29:02.927Z,99.90
2022-08-31T01:31:50.263Z,99.90
2022-08-31T01:34:17.245Z,99.90
2022-08-31T01:36:47.455Z,99.90
2022-08-31T01:39:14.834Z,99.90
2022-08-31T01:47:10.496Z,99.90
2022-08-31T01:49:37.360Z,99.90
2022-08-31T01:52:05.706Z,99.90
2022-08-31T01:54:33.788Z,99.90
2022-08-31T01:57:01.341Z,99.90
2022-08-31T01:59:42.947Z,99.90
2022-08-31T02:02:45.628Z,99.90
2022-08-31T02:08:36.504Z,99.90
2022-08-31T02:11:07.600Z,99.90
2022-08-31T02:13:35.620Z,99.90
2022-08-31T02:16:03.419Z,99.90
2022-08-31T02:18:34.717Z,99.90
2022-08-31T02:21:02.596Z,99.90
2022-08-31T02:23:29.773Z,99.90
2022-08-31T02:31:01.255Z,99.90
2022-08-31T02:33:31.459Z,99.90
2022-08-31T02:36:00.735Z,99.90
2022-08-31T02:38:28.362Z,99.90
2022-08-31T02:40:55.915Z,99.90
2022-08-31T02:43:25.154Z,99.90
2022-08-31T02:45:53.955Z,99.90
2022-08-31T02:56:13.855Z,99.90
2022-08-31T02:58:41.080Z,99.90
2022-08-31T03:01:08.568Z,99.90
2022-08-31T03:03:36.270Z,99.90
2022-08-31T03:06:03.318Z,99.90
2022-08-31T03:08:31.226Z,99.90
2022-08-31T03:11:00.838Z,99.90
2022-08-31T03:16:11.856Z,99.90
2022-08-31T03:18:38.859Z,99.90
2022-08-31T03:21:05.986Z,99.90
2022-08-31T03:23:33.030Z,99.90
2022-08-31T03:26:00.345Z,99.90
2022-08-31T03:28:27.379Z,99.90
2022-08-31T03:31:14.595Z,99.90
2022-08-31T03:36:23.470Z,99.90
2022-08-31T03:38:50.785Z,99.90
2022-08-31T03:41:22.447Z,99.90
2022-08-31T03:43:49.656Z,99.90
2022-08-31T03:46:20.023Z,99.90
2022-08-31T03:48:47.847Z,99.90
2022-08-31T03:51:17.495Z,99.90
2022-08-31T03:56:36.245Z,99.90
2022-08-31T03:59:03.228Z,99.90
2022-08-31T04:01:53.455Z,99.90
2022-08-31T04:04:38.644Z,99.90
2022-08-31T04:07:42.493Z,99.90
2022-08-31T04:10:44.706Z,99.90
2022-08-31T04:16:12.604Z,99.90
2022-08-31T04:18:57.705Z,99.90
2022-08-31T04:21:27.803Z,99.90
2022-08-31T04:23:55.202Z,99.90
2022-08-31T04:26:25.803Z,99.90
2022-08-31T04:28:53.557Z,99.90
2022-08-31T04:31:22.891Z,99.90
2022-08-31T04:36:31.376Z,99.90
2022-08-31T04:39:02.386Z,99.90
2022-08-31T04:41:31.988Z,99.90
2022-08-31T04:44:00.504Z,99.90
2022-08-31T04:46:29.695Z,99.90
2022-08-31T04:48:57.344Z,99.90
2022-08-31T04:51:30.478Z,99.90
2022-08-31T05:12:09.041Z,99.90
2022-08-31T05:14:37.238Z,99.90
2022-08-31T05:17:16.348Z,99.90
2022-08-31T05:19:43.965Z,99.90
2022-08-31T05:22:14.178Z,99.90
2022-08-31T05:24:43.388Z,99.90
2022-08-31T05:27:12.683Z,99.90
2022-08-31T05:35:12.707Z,99.90
2022-08-31T05:37:41.882Z,99.90
2022-08-31T05:40:10.145Z,99.90
2022-08-31T05:42:36.929Z,99.90
2022-08-31T05:45:04.196Z,99.90
2022-08-31T05:47:31.362Z,99.90
2022-08-31T05:49:59.050Z,99.90
2022-08-31T05:55:39.642Z,99.90
2022-08-31T05:58:07.017Z,99.90
2022-08-31T06:00:35.199Z,99.90
2022-08-31T06:03:22.317Z,99.90
2022-08-31T06:05:50.138Z,99.90
2022-08-31T06:08:18.499Z,99.90
2022-08-31T06:11:01.776Z,99.90
2022-08-31T06:18:23.468Z,99.90
2022-08-31T06:21:01.666Z,99.90
2022-08-31T06:23:29.712Z,99.90
2022-08-31T06:26:05.702Z,99.90
2022-08-31T06:28:34.274Z,99.90
2022-08-31T06:31:02.417Z,99.90
2022-08-31T06:33:31.985Z,99.90
2022-08-31T06:42:13.321Z,99.90
2022-08-31T06:44:58.675Z,99.90
2022-08-31T06:47:43.188Z,99.90
2022-08-31T06:50:13.263Z,99.90
2022-08-31T06:52:40.536Z,99.90
2022-08-31T06:55:20.323Z,99.90
2022-08-31T06:58:05.804Z,99.90
2022-08-31T07:05:53.901Z,99.90
2022-08-31T07:08:21.340Z,99.90
2022-08-31T07:10:49.962Z,99.90
2022-08-31T07:13:18.303Z,99.90
2022-08-31T07:15:45.128Z,99.90
2022-08-31T07:18:12.702Z,99.90
2022-08-31T07:20:40.840Z,93.80
2022-08-31T07:25:51.354Z,85.10
2022-08-31T07:28:18.719Z,80.90
2022-08-31T07:30:49.402Z,75.30
2022-08-31T07:33:17.895Z,72.60
2022-08-31T07:35:55.788Z,66.70
2022-08-31T07:39:04.716Z,67.20
2022-08-31T07:41:52.315Z,63.20
2022-08-31T07:49:26.679Z,62.60
2022-08-31T07:52:21.342Z,59.80
2022-08-31T07:55:22.692Z,59.70
2022-08-31T07:57:54.860Z,59.50
2022-08-31T08:00:28.551Z,60.10
2022-08-31T08:02:56.111Z,58.60
2022-08-31T08:05:31.388Z,58.60
2022-08-31T08:12:39.766Z,56.20
2022-08-31T08:15:26.247Z,55.00
2022-08-31T08:18:22.550Z,55.00
2022-08-31T08:20:55.026Z,54.50
2022-08-31T08:23:28.194Z,54.30
2022-08-31T08:26:14.040Z,54.70
2022-08-31T08:29:07.498Z,55.60
2022-08-31T08:36:46.888Z,52.80
2022-08-31T08:39:15.364Z,54.00
2022-08-31T08:41:57.253Z,51.80
2022-08-31T08:44:28.405Z,48.50
2022-08-31T08:46:58.373Z,47.50
2022-08-31T08:49:55.441Z,48.50
2022-08-31T09:00:38.142Z,50.20
2022-08-31T09:03:16.218Z,49.40
2022-08-31T09:06:11.547Z,51.70
2022-08-31T09:09:07.857Z,51.70
2022-08-31T09:11:38.761Z,52.00
2022-08-31T09:14:31.318Z,50.10
2022-08-31T09:17:17.723Z,49.40
2022-08-31T09:25:05.127Z,50.00
2022-08-31T09:27:59.366Z,50.00
2022-08-31T09:30:36.006Z,49.30
2022-08-31T09:33:03.569Z,48.50
2022-08-31T09:35:40.667Z,49.00
2022-08-31T09:38:10.524Z,49.30
2022-08-31T09:40:52.797Z,49.10
2022-08-31T09:48:52.762Z,48.40
2022-08-31T09:51:33.817Z,49.10
2022-08-31T09:54:34.399Z,48.30
2022-08-31T09:57:08.688Z,48.10
2022-08-31T09:59:44.061Z,48.80
2022-08-31T10:02:37.739Z,46.90
2022-08-31T10:08:22.846Z,48.80
2022-08-31T10:10:50.986Z,49.30
2022-08-31T10:13:52.942Z,48.00
2022-08-31T10:16:26.911Z,46.60
2022-08-31T10:18:59.778Z,46.40
2022-08-31T10:21:51.554Z,47.10
2022-08-31T10:30:21.867Z,46.10
2022-08-31T10:33:08.195Z,44.20
2022-08-31T10:36:15.557Z,45.30
2022-08-31T10:38:49.310Z,43.90
2022-08-31T10:41:15.925Z,43.70
2022-08-31T10:43:46.083Z,44.10
2022-08-31T10:50:04.743Z,43.00
2022-08-31T10:52:33.999Z,43.50
2022-08-31T10:55:18.996Z,43.50
2022-08-31T10:58:20.516Z,42.30
2022-08-31T11:01:22.792Z,42.40
2022-08-31T11:04:19.420Z,41.30
2022-08-31T11:12:57.548Z,41.20
2022-08-31T11:15:43.972Z,41.80
2022-08-31T11:18:35.837Z,41.70
2022-08-31T11:21:40.957Z,41.90
2022-08-31T11:24:45.525Z,41.50
2022-08-31T11:27:23.308Z,40.20
2022-08-31T11:37:52.806Z,40.90
2022-08-31T11:40:44.331Z,39.90
2022-08-31T11:43:15.694Z,42.10
2022-08-31T11:45:43.235Z,41.90
2022-08-31T11:48:50.813Z,40.20
2022-08-31T11:51:36.094Z,40.60
2022-08-31T11:54:41.814Z,40.90
2022-08-31T12:02:20.644Z,42.70
2022-08-31T12:04:54.919Z,40.50
2022-08-31T12:07:59.193Z,41.50
2022-08-31T12:10:39.271Z,41.80
2022-08-31T12:13:41.656Z,42.70
2022-08-31T12:16:24.083Z,43.30
2022-08-31T12:24:04.802Z,42.00
2022-08-31T12:26:57.802Z,42.30
2022-08-31T12:29:37.261Z,43.00
2022-08-31T12:32:11.195Z,41.80
2022-08-31T12:34:50.447Z,41.80
2022-08-31T12:37:30.332Z,42.70
2022-08-31T12:40:06.682Z,43.70
2022-08-31T12:47:45.907Z,44.50
2022-08-31T12:50:27.752Z,45.50
2022-08-31T12:53:13.591Z,46.40
2022-08-31T12:55:49.819Z,48.20
2022-08-31T12:58:44.312Z,46.40
2022-08-31T13:01:14.070Z,45.90
2022-08-31T13:08:56.273Z,47.00
2022-08-31T13:11:35.306Z,46.50
2022-08-31T13:14:19.572Z,46.60
2022-08-31T13:16:52.385Z,46.10
2022-08-31T13:19:30.247Z,45.50
2022-08-31T13:22:07.719Z,45.60
2022-08-31T13:24:41.002Z,47.10
2022-08-31T13:30:18.444Z,46.30
2022-08-31T13:32:51.939Z,46.20
2022-08-31T13:35:25.041Z,46.70
2022-08-31T13:38:06.837Z,47.50
2022-08-31T13:40:36.816Z,46.30
2022-08-31T13:43:09.404Z,48.90
2022-08-31T13:45:57.407Z,49.30
2022-08-31T13:53:55.125Z,46.30
2022-08-31T13:56:54.005Z,45.20
2022-08-31T13:59:24.632Z,47.30
2022-08-31T14:01:58.329Z,48.30
2022-08-31T14:04:48.825Z,49.10
2022-08-31T14:07:20.976Z,47.90
2022-08-31T14:14:39.622Z,48.00
2022-08-31T14:17:16.263Z,47.60
2022-08-31T14:19:45.518Z,45.80
2022-08-31T14:22:30.141Z,47.90
2022-08-31T14:25:00.098Z,48.30
2022-08-31T14:27:30.145Z,48.30
2022-08-31T14:34:57.413Z,48.10
2022-08-31T14:37:28.723Z,48.60
2022-08-31T14:40:07.412Z,47.40
2022-08-31T14:42:37.712Z,48.90
2022-08-31T14:45:17.826Z,46.80
2022-08-31T14:47:47.562Z,46.10
2022-08-31T14:50:21.233Z,46.60
2022-08-31T14:57:24.790Z,46.90
2022-08-31T14:59:59.117Z,47.50
2022-08-31T15:02:31.507Z,47.80
2022-08-31T15:05:04.144Z,47.60
2022-08-31T15:07:35.868Z,47.40
2022-08-31T15:10:06.157Z,47.60
2022-08-31T15:12:35.007Z,46.20
2022-08-31T15:19:40.128Z,46.20
2022-08-31T15:22:09.585Z,48.00
2022-08-31T15:24:37.829Z,47.50
2022-08-31T15:27:12.224Z,48.10
2022-08-31T15:29:40.419Z,48.20
2022-08-31T15:32:09.644Z,47.80
2022-08-31T15:34:38.200Z,48.00
2022-08-31T15:41:37.466Z,49.90
2022-08-31T15:44:09.937Z,48.20
2022-08-31T15:46:56.569Z,47.10
2022-08-31T15:49:25.943Z,48.40
2022-08-31T15:51:53.530Z,49.40
2022-08-31T15:54:26.629Z,50.20
2022-08-31T15:56:54.653Z,51.00
2022-08-31T16:04:37.943Z,51.30
2022-08-31T16:07:08.661Z,51.80
2022-08-31T16:09:36.739Z,52.00
2022-08-31T16:12:04.046Z,52.10
2022-08-31T16:14:31.471Z,52.20
2022-08-31T16:16:59.059Z,52.20
2022-08-31T16:19:35.055Z,52.50
2022-08-31T16:27:18.851Z,52.80
2022-08-31T16:29:50.338Z,53.20
2022-08-31T16:32:18.056Z,53.50
2022-08-31T16:34:45.541Z,53.70
2022-08-31T16:37:12.409Z,53.60
2022-08-31T16:39:42.454Z,54.00
2022-08-31T16:42:11.679Z,54.10
2022-08-31T16:49:43.685Z,54.30
2022-08-31T16:52:20.671Z,55.00
2022-08-31T16:54:50.618Z,55.40
2022-08-31T16:57:24.794Z,55.60
2022-08-31T16:59:52.539Z,55.80
2022-08-31T17:02:21.111Z,55.70
2022-08-31T17:04:52.579Z,55.80
2022-08-31T17:12:13.877Z,56.00
2022-08-31T17:14:46.116Z,56.20
2022-08-31T17:17:17.339Z,56.80
2022-08-31T17:19:46.783Z,56.60
2022-08-31T17:22:23.493Z,56.90
2022-08-31T17:24:56.878Z,56.90
2022-08-31T17:27:24.727Z,56.90
2022-08-31T17:34:28.725Z,57.50
2022-08-31T17:37:00.476Z,57.90
2022-08-31T17:39:27.795Z,57.90
2022-08-31T17:41:55.409Z,58.10
2022-08-31T17:44:25.811Z,58.30
2022-08-31T17:46:53.452Z,58.40
2022-08-31T17:49:22.578Z,58.50
2022-08-31T17:55:08.183Z,58.50
2022-08-31T17:57:35.227Z,58.90
2022-08-31T18:00:03.931Z,59.10
2022-08-31T18:02:37.296Z,59.20
2022-08-31T18:05:09.461Z,59.30
2022-08-31T18:08:04.004Z,59.40
2022-08-31T18:10:31.317Z,59.50
2022-08-31T18:18:04.702Z,59.90
2022-08-31T18:20:32.749Z,60.90
2022-08-31T18:23:00.365Z,61.20
2022-08-31T18:25:31.735Z,61.50
2022-08-31T18:28:04.499Z,61.80
2022-08-31T18:30:41.078Z,62.60
2022-08-31T18:33:10.290Z,62.50
2022-08-31T18:41:04.859Z,65.80
2022-08-31T18:43:54.634Z,67.80
2022-08-31T18:46:24.950Z,69.20
2022-08-31T18:48:58.849Z,69.70
2022-08-31T18:51:37.715Z,70.00
2022-08-31T18:54:05.619Z,71.40
2022-08-31T18:56:32.966Z,73.20
2022-08-31T19:04:10.022Z,77.20
2022-08-31T19:06:39.296Z,79.60
2022-08-31T19:09:09.186Z,82.00
2022-08-31T19:11:49.428Z,83.20
2022-08-31T19:14:19.661Z,84.70
2022-08-31T19:16:51.442Z,88.60
2022-08-31T19:19:28.903Z,90.40
2022-08-31T19:27:02.085Z,93.60
2022-08-31T19:29:30.748Z,96.90
2022-08-31T19:32:00.696Z,97.10
2022-08-31T19:34:32.356Z,96.70
2022-08-31T19:37:00.727Z,93.70
2022-08-31T19:39:31.366Z,93.30
2022-08-31T19:42:07.169Z,95.00
2022-08-31T19:49:42.906Z,98.10
2022-08-31T19:52:09.658Z,99.10
2022-08-31T19:54:39.451Z,99.90
2022-08-31T19:57:08.431Z,99.90
2022-08-31T19:59:36.883Z,99.90
2022-08-31T20:02:05.767Z,99.90
2022-08-31T20:04:34.099Z,99.90
2022-08-31T20:09:55.804Z,99.90
2022-08-31T20:12:22.628Z,99.90
2022-08-31T20:14:50.045Z,99.90
2022-08-31T20:17:19.443Z,99.90
2022-08-31T20:19:50.471Z,99.90
2022-08-31T20:22:17.168Z,99.90
2022-08-31T20:24:45.149Z,99.90
2022-08-31T20:32:22.269Z,99.90
2022-08-31T20:34:50.808Z,99.90
2022-08-31T20:37:18.040Z,99.90
2022-08-31T20:39:44.730Z,99.90
2022-08-31T20:42:12.483Z,99.90
2022-08-31T20:44:39.256Z,99.90
2022-08-31T20:47:28.949Z,99.90
2022-08-31T20:55:06.953Z,99.90
2022-08-31T20:57:35.542Z,99.90
2022-08-31T21:00:05.197Z,99.90
2022-08-31T21:02:33.699Z,99.90
2022-08-31T21:05:20.675Z,99.90
2022-08-31T21:07:48.304Z,99.90
2022-08-31T21:10:15.206Z,99.90
2022-08-31T21:18:02.093Z,99.90
2022-08-31T21:20:29.195Z,99.90
2022-08-31T21:22:56.283Z,99.90
2022-08-31T21:25:23.219Z,99.90
2022-08-31T21:27:51.595Z,99.90
2022-08-31T21:30:18.686Z,99.90
2022-08-31T21:32:47.815Z,99.90
2022-08-31T21:40:18.043Z,99.90
2022-08-31T21:42:45.102Z,99.90
2022-08-31T21:45:11.939Z,99.90
2022-08-31T21:47:38.932Z,99.90
2022-08-31T21:50:06.558Z,99.90
2022-08-31T21:52:33.546Z,99.90
2022-08-31T21:55:05.286Z,99.90
2022-08-31T22:02:46.113Z,99.90
2022-08-31T22:05:13.457Z,99.90
2022-08-31T22:08:05.362Z,99.90
2022-08-31T22:10:35.995Z,99.90
2022-08-31T22:13:04.386Z,99.90
2022-08-31T22:15:34.078Z,99.90
2022-08-31T22:18:31.470Z,99.90
2022-08-31T22:23:25.412Z,99.90
2022-08-31T22:25:52.449Z,99.90
2022-08-31T22:28:22.207Z,99.90
2022-08-31T22:30:48.972Z,99.90
2022-08-31T22:33:15.976Z,99.90
2022-08-31T22:35:42.910Z,99.90
2022-08-31T22:38:14.121Z,99.90
2022-08-31T22:43:23.501Z,99.90
2022-08-31T22:45:51.175Z,99.90
2022-08-31T22:48:17.896Z,99.90
2022-08-31T22:50:44.742Z,99.90
2022-08-31T22:53:11.770Z,99.90
2022-08-31T22:55:40.490Z,99.90
2022-08-31T22:58:07.866Z,99.90
2022-08-31T23:05:52.919Z,99.90
2022-08-31T23:08:22.089Z,99.90
2022-08-31T23:10:49.323Z,99.90
2022-08-31T23:13:16.363Z,99.90
2022-08-31T23:15:45.681Z,99.90
2022-08-31T23:18:13.278Z,99.90
2022-08-31T23:20:41.326Z,99.90
2022-08-31T23:28:17.542Z,99.90
2022-08-31T23:30:50.729Z,99.90
2022-08-31T23:33:20.197Z,99.90
2022-08-31T23:35:47.636Z,99.90
2022-08-31T23:38:14.556Z,99.90
2022-08-31T23:40:42.217Z,99.90
2022-08-31T23:43:11.046Z,99.90
2022-08-31T23:50:29.099Z,99.90
2022-08-31T23:52:56.916Z,99.90
2022-08-31T23:55:27.904Z,99.90
2022-08-31T23:57:57.095Z,99.90
